Time;durP1;ratioP1;P1;durP2;ratioP2;P2;SDS_P1;SDS_P2;PMS_P1;PMS_P2;Temp;Humidity;BMP_temperature;BMP_pressure;BME280_temperature;BME280_humidity;BME280_pressure;Samples;Min_cycle;Max_cycle;Signal;HPM_P1;HPM_P2
2022/03/22 00:00:12;;;;;;;1.27;0.85;;;20.10;60.00;;;;;;5014501;28;20491;-71
2022/03/22 00:02:38;;;;;;;2.85;1.10;;;20.10;60.10;;;;;;5014572;28;20041;-71
2022/03/22 00:05:03;;;;;;;1.55;0.93;;;20.10;60.10;;;;;;5014483;28;20484;-71
2022/03/22 00:07:30;;;;;;;0.75;0.70;;;20.10;60.10;;;;;;5014204;28;20054;-70
2022/03/22 00:09:56;;;;;;;0.75;0.65;;;20.10;60.20;;;;;;5013186;28;20040;-71
2022/03/22 00:12:21;;;;;;;1.27;0.80;;;20.10;60.20;;;;;;5019865;28;20037;-71
2022/03/22 00:14:47;;;;;;;0.73;0.73;;;20.10;60.20;;;;;;5034143;28;20026;-71
2022/03/22 00:17:13;;;;;;;2.17;0.90;;;20.10;60.30;;;;;;5033934;28;20053;-71
2022/03/22 00:19:39;;;;;;;2.95;1.08;;;20.10;60.30;;;;;;5026507;28;20022;-71
2022/03/22 00:22:04;;;;;;;2.03;0.80;;;20.10;60.30;;;;;;5013780;28;20022;-71
2022/03/22 00:24:30;;;;;;;1.77;1.00;;;20.20;60.40;;;;;;5014219;28;20469;-71
2022/03/22 00:26:56;;;;;;;0.85;0.80;;;20.10;60.30;;;;;;5014079;28;20025;-71
2022/03/22 00:29:22;;;;;;;1.52;1.00;;;20.10;60.30;;;;;;5013933;28;20093;-71
2022/03/22 00:31:47;;;;;;;2.97;0.90;;;20.10;60.30;;;;;;5014256;28;20052;-71
2022/03/22 00:34:13;;;;;;;1.45;0.85;;;20.10;60.40;;;;;;5013797;28;20087;-71
2022/03/22 00:36:42;;;;;;;1.83;0.70;;;20.10;60.40;;;;;;5012639;28;20130;-71
2022/03/22 00:39:07;;;;;;;1.63;0.80;;;20.10;60.40;;;;;;5013895;28;20022;-71
2022/03/22 00:41:33;;;;;;;2.88;1.10;;;20.10;60.40;;;;;;5013608;28;20111;-71
2022/03/22 00:43:59;;;;;;;3.60;1.00;;;20.10;60.50;;;;;;5012417;28;20034;-71
2022/03/22 00:46:24;;;;;;;2.58;0.90;;;20.10;60.50;;;;;;5013526;28;20036;-71
2022/03/22 00:48:50;;;;;;;2.35;1.10;;;20.10;60.50;;;;;;5012459;28;20034;-70
2022/03/22 00:51:16;;;;;;;2.78;1.10;;;20.10;60.50;;;;;;5012209;28;20057;-71
2022/03/22 00:53:41;;;;;;;3.38;0.82;;;20.10;61.60;;;;;;5012495;28;20408;-71
2022/03/22 00:56:08;;;;;;;1.45;0.88;;;20.10;60.50;;;;;;5012439;28;20480;-71
2022/03/22 00:58:34;;;;;;;3.00;1.55;;;20.10;60.60;;;;;;5013605;28;20384;-71
2022/03/22 01:01:00;;;;;;;1.75;0.90;;;20.10;60.60;;;;;;5012297;28;20030;-71
2022/03/22 01:03:28;;;;;;;3.10;0.73;;;20.10;60.60;;;;;;5013264;28;20022;-71
2022/03/22 01:05:54;;;;;;;2.60;0.95;;;20.10;60.60;;;;;;5012249;28;20536;-71
2022/03/22 01:08:20;;;;;;;1.20;0.90;;;20.10;60.70;;;;;;5013252;28;20097;-71
2022/03/22 01:10:52;;;;;;;1.23;1.08;;;20.10;60.70;;;;;;5012213;28;20028;-71
2022/03/22 01:13:18;;;;;;;4.20;0.90;;;20.10;60.70;;;;;;5026464;28;20022;-71
2022/03/22 01:15:44;;;;;;;2.08;1.10;;;20.10;60.70;;;;;;5031945;28;20024;-71
2022/03/22 01:18:10;;;;;;;1.52;0.90;;;20.10;60.70;;;;;;5032744;28;20108;-71
2022/03/22 01:20:41;;;;;;;1.45;0.80;;;20.10;60.70;;;;;;5016344;28;20026;-71
2022/03/22 01:23:07;;;;;;;2.30;0.95;;;20.10;60.70;;;;;;5011886;28;20080;-71
2022/03/22 01:25:34;;;;;;;0.90;0.73;;;20.20;60.80;;;;;;5013124;28;20053;-71
2022/03/22 01:28:02;;;;;;;1.58;0.90;;;20.10;60.80;;;;;;5011999;28;20026;-71
2022/03/22 01:30:28;;;;;;;2.30;1.17;;;20.10;60.80;;;;;;5011764;28;20030;-71
2022/03/22 01:32:54;;;;;;;0.80;0.80;;;20.10;60.90;;;;;;5011800;28;20472;-71
2022/03/22 01:35:20;;;;;;;1.33;0.63;;;20.10;60.90;;;;;;5011546;28;20018;-70
2022/03/22 01:37:49;;;;;;;0.70;0.70;;;20.10;60.90;;;;;;5011707;28;20026;-71
2022/03/22 01:40:16;;;;;;;0.80;0.70;;;20.10;60.90;;;;;;5011654;28;20029;-71
2022/03/22 01:42:42;;;;;;;2.40;0.70;;;20.10;60.90;;;;;;5011565;28;20165;-71
2022/03/22 01:45:09;;;;;;;0.80;0.80;;;20.10;60.90;;;;;;5011684;28;20026;-70
2022/03/22 01:47:35;;;;;;;1.05;0.82;;;20.10;62.00;;;;;;5012720;28;20109;-71
2022/03/22 01:50:01;;;;;;;2.10;0.90;;;20.10;61.00;;;;;;5011520;28;20109;-70
2022/03/22 01:52:27;;;;;;;1.50;1.00;;;20.10;61.00;;;;;;5012702;28;20081;-70
2022/03/22 01:54:55;;;;;;;2.33;1.10;;;20.20;61.10;;;;;;5011954;28;20030;-71
2022/03/22 01:57:22;;;;;;;1.98;1.08;;;20.10;61.10;;;;;;5011464;28;20037;-71
2022/03/22 01:59:47;;;;;;;1.65;1.00;;;20.10;61.10;;;;;;5011686;28;20022;-71
2022/03/22 02:07:43;;;;;;;2.22;1.27;;;20.10;61.20;;;;;;5011480;28;20115;-71
2022/03/22 02:10:08;;;;;;;3.88;1.30;;;20.10;61.20;;;;;;5011297;28;20549;-71
2022/03/22 02:12:34;;;;;;;0.85;0.80;;;20.10;61.20;;;;;;5019867;28;20108;-71
2022/03/22 02:15:00;;;;;;;3.17;1.10;;;20.10;61.30;;;;;;5030942;28;20025;-71
2022/03/22 02:17:25;;;;;;;1.67;0.80;;;20.10;61.30;;;;;;5030920;28;20033;-71
2022/03/22 02:19:51;;;;;;;1.58;0.95;;;20.10;61.30;;;;;;5022938;28;20018;-71
2022/03/22 02:22:18;;;;;;;1.35;0.95;;;20.10;61.30;;;;;;5012177;28;20084;-71
2022/03/22 02:24:44;;;;;;;2.95;0.93;;;20.10;61.30;;;;;;5011213;28;20024;-71
2022/03/22 02:27:09;;;;;;;1.48;0.95;;;20.10;61.30;;;;;;5011335;28;20030;-71
2022/03/22 02:29:35;;;;;;;1.20;0.90;;;20.10;61.30;;;;;;5011113;28;20030;-70
2022/03/22 02:32:02;;;;;;;2.33;0.90;;;20.10;61.40;;;;;;5011130;28;20485;-70
2022/03/22 02:34:28;;;;;;;2.08;1.08;;;20.10;61.50;;;;;;5010948;28;20074;-70
2022/03/22 02:36:53;;;;;;;2.42;0.98;;;20.10;61.50;;;;;;5011026;28;20469;-70
2022/03/22 02:39:19;;;;;;;1.98;0.90;;;20.00;61.30;;;;;;5012171;28;20101;-70
2022/03/22 02:41:48;;;;;;;3.05;0.80;;;20.10;61.40;;;;;;5012082;28;20038;-70
2022/03/22 02:44:14;;;;;;;1.77;0.75;;;20.10;61.50;;;;;;5012097;28;20069;-70
2022/03/22 02:46:40;;;;;;;1.00;0.88;;;20.10;61.50;;;;;;5012176;28;20033;-71
2022/03/22 02:49:08;;;;;;;0.80;0.80;;;20.10;61.50;;;;;;5011960;28;20488;-71
2022/03/22 02:51:34;;;;;;;1.48;0.90;;;20.00;61.50;;;;;;5012141;28;20034;-71
2022/03/22 02:53:59;;;;;;;1.10;1.00;;;20.10;61.60;;;;;;5012176;28;20451;-71
2022/03/22 02:56:25;;;;;;;2.63;0.90;;;20.00;61.50;;;;;;5011917;28;20509;-71
2022/03/22 02:58:51;;;;;;;1.33;1.20;;;20.00;61.50;;;;;;5015527;28;20510;-71
2022/03/22 03:01:16;;;;;;;1.70;0.90;;;20.00;61.50;;;;;;5030607;28;20021;-71
2022/03/22 03:03:42;;;;;;;1.92;0.93;;;20.00;61.60;;;;;;5031757;28;20037;-71
2022/03/22 03:06:08;;;;;;;1.65;1.08;;;20.00;61.60;;;;;;5032383;28;20423;-71
2022/03/22 03:08:33;;;;;;;5.07;1.00;;;20.00;61.60;;;;;;5034040;28;20399;-71
2022/03/22 03:10:59;;;;;;;1.25;1.00;;;20.00;61.60;;;;;;5035333;28;20025;-71
2022/03/22 03:13:24;;;;;;;1.90;1.02;;;20.00;61.70;;;;;;5035235;28;20076;-71
2022/03/22 03:15:50;;;;;;;2.50;0.90;;;20.00;61.60;;;;;;5035056;28;20025;-71
2022/03/22 03:18:18;;;;;;;1.83;1.27;;;20.00;61.70;;;;;;5035246;28;20021;-70
2022/03/22 03:20:44;;;;;;;1.90;0.90;;;20.00;61.70;;;;;;5033774;28;20109;-70
2022/03/22 03:23:09;;;;;;;1.00;0.88;;;20.00;61.70;;;;;;5033936;28;20053;-71
2022/03/22 03:25:35;;;;;;;2.08;1.10;;;20.00;61.70;;;;;;5034783;28;20031;-70
2022/03/22 03:28:01;;;;;;;2.15;0.90;;;20.00;61.70;;;;;;5035021;28;20075;-70
2022/03/22 03:30:27;;;;;;;2.53;0.98;;;20.00;61.80;;;;;;5034809;28;20029;-70
2022/03/22 03:32:53;;;;;;;4.32;1.00;;;20.00;61.80;;;;;;5033631;28;20043;-70
2022/03/22 03:35:18;;;;;;;1.95;1.00;;;20.00;61.80;;;;;;5035018;28;20109;-70
2022/03/22 03:37:45;;;;;;;1.25;0.90;;;20.00;61.80;;;;;;5033684;28;20415;-71
2022/03/22 03:40:11;;;;;;;1.83;1.00;;;20.00;61.80;;;;;;5034766;28;20143;-70
2022/03/22 03:42:42;;;;;;;1.42;1.00;;;20.00;61.80;;;;;;5033227;28;20112;-70
2022/03/22 03:47:56;;;;;;;1.17;0.90;;;19.90;61.80;;;;;;5034705;28;20541;-71
2022/03/22 03:50:21;;;;;;;2.33;0.82;;;20.00;61.90;;;;;;5017098;28;20037;-71
2022/03/22 03:52:47;;;;;;;1.27;1.10;;;20.00;61.90;;;;;;5033286;28;20100;-71
2022/03/22 03:55:13;;;;;;;2.85;0.98;;;20.00;61.90;;;;;;5033403;28;20094;-71
2022/03/22 03:57:38;;;;;;;1.48;1.02;;;19.90;61.90;;;;;;5033109;28;20029;-71
2022/03/22 04:00:05;;;;;;;2.90;1.20;;;19.90;61.90;;;;;;5034057;28;20025;-71
2022/03/22 04:02:31;;;;;;;4.55;0.90;;;20.00;62.00;;;;;;5033041;28;20586;-71
2022/03/22 04:04:56;;;;;;;2.60;1.40;;;20.00;62.00;;;;;;5034345;28;20104;-71
2022/03/22 04:07:23;;;;;;;1.60;1.10;;;19.90;61.90;;;;;;5033145;28;20025;-71
2022/03/22 04:09:49;;;;;;;3.00;1.30;;;20.00;62.00;;;;;;5033277;28;20029;-71
2022/03/22 04:12:15;;;;;;;1.25;1.10;;;19.90;61.90;;;;;;5033108;28;20080;-71
2022/03/22 04:14:40;;;;;;;2.78;1.15;;;19.90;62.00;;;;;;5033984;28;20036;-71
2022/03/22 04:17:08;;;;;;;2.35;0.93;;;19.90;62.00;;;;;;5032824;28;20026;-71
2022/03/22 04:19:35;;;;;;;2.00;1.08;;;19.90;62.00;;;;;;5026641;28;20068;-71
2022/03/22 04:22:02;;;;;;;1.10;1.00;;;19.90;62.00;;;;;;5013033;28;20025;-71
2022/03/22 04:24:28;;;;;;;1.10;1.10;;;19.90;62.00;;;;;;5012884;28;20100;-71
2022/03/22 04:26:55;;;;;;;1.92;0.90;;;19.90;62.00;;;;;;5014214;28;20049;-71
2022/03/22 04:34:49;;;;;;;1.48;0.90;;;19.90;62.10;;;;;;5014246;28;20401;-71
2022/03/22 04:37:15;;;;;;;2.33;0.98;;;19.90;62.10;;;;;;5014002;28;20041;-71
2022/03/22 04:39:42;;;;;;;2.85;0.88;;;19.80;62.10;;;;;;5013824;28;20444;-71
2022/03/22 04:42:07;;;;;;;1.35;1.00;;;19.80;62.10;;;;;;5012497;28;20037;-71
2022/03/22 04:44:34;;;;;;;1.67;1.20;;;19.90;62.10;;;;;;5012553;28;20084;-71
2022/03/22 04:46:59;;;;;;;1.00;0.90;;;19.90;62.10;;;;;;5013849;28;20041;-71
2022/03/22 04:49:26;;;;;;;1.00;1.00;;;19.90;62.10;;;;;;5012573;28;20034;-70
2022/03/22 04:57:20;;;;;;;1.52;1.15;;;19.80;62.10;;;;;;5012562;28;20104;-70
2022/03/22 04:59:47;;;;;;;2.72;1.40;;;19.80;62.10;;;;;;5016275;28;20430;-70
2022/03/22 05:02:13;;;;;;;0.93;0.93;;;19.80;62.10;;;;;;5033178;28;20484;-70
2022/03/22 05:04:39;;;;;;;1.30;1.20;;;19.80;62.10;;;;;;5032051;28;20025;-70
2022/03/22 05:07:05;;;;;;;1.63;1.10;;;19.80;62.10;;;;;;5033177;28;20093;-70
2022/03/22 05:09:30;;;;;;;1.98;1.20;;;19.80;62.10;;;;;;5031900;28;20061;-70
2022/03/22 05:11:57;;;;;;;1.40;1.00;;;19.80;62.10;;;;;;5032757;28;20060;-70
2022/03/22 05:14:22;;;;;;;1.90;1.20;;;19.80;62.10;;;;;;5031780;28;20029;-70
2022/03/22 05:16:48;;;;;;;2.90;1.30;;;19.80;62.10;;;;;;5033011;28;20059;-70
2022/03/22 05:19:14;;;;;;;1.48;1.30;;;19.80;62.10;;;;;;5027739;28;20014;-70
2022/03/22 05:21:40;;;;;;;1.33;1.08;;;19.80;62.20;;;;;;5011746;28;20079;-70
2022/03/22 05:24:06;;;;;;;1.48;1.10;;;19.80;62.20;;;;;;5012061;28;20141;-70
2022/03/22 05:26:32;;;;;;;1.60;1.30;;;19.80;62.20;;;;;;5011768;28;20025;-70
2022/03/22 05:28:58;;;;;;;1.73;1.30;;;19.80;62.20;;;;;;5012843;28;20041;-70
2022/03/22 05:31:23;;;;;;;2.42;1.10;;;19.80;62.10;;;;;;5012177;28;20026;-70
2022/03/22 05:33:49;;;;;;;1.23;1.13;;;19.80;62.20;;;;;;5011677;28;20539;-70
2022/03/22 05:36:15;;;;;;;1.90;1.20;;;19.80;62.20;;;;;;5011631;28;20029;-71
2022/03/22 05:38:41;;;;;;;1.73;1.15;;;19.80;62.20;;;;;;5011818;28;20068;-71
2022/03/22 05:41:08;;;;;;;1.50;1.38;;;19.80;62.20;;;;;;5011351;28;20181;-71
2022/03/22 05:43:34;;;;;;;3.35;1.15;;;19.80;62.20;;;;;;5012767;28;20018;-71
2022/03/22 05:46:00;;;;;;;1.13;1.10;;;19.80;62.20;;;;;;5011747;28;20068;-71
2022/03/22 05:48:26;;;;;;;2.55;1.30;;;19.80;62.30;;;;;;5011627;28;20101;-71
2022/03/22 05:50:52;;;;;;;1.30;1.15;;;19.70;62.20;;;;;;5012510;28;21218;-71
2022/03/22 05:53:17;;;;;;;1.92;1.50;;;19.80;62.30;;;;;;5011759;28;20028;-71
2022/03/22 05:55:43;;;;;;;2.45;1.50;;;19.70;62.30;;;;;;5012399;28;20029;-71
2022/03/22 05:58:09;;;;;;;1.92;1.50;;;19.70;62.30;;;;;;5012646;28;20566;-71
2022/03/22 06:00:34;;;;;;;2.25;1.33;;;19.70;62.30;;;;;;5022039;28;20095;-71
2022/03/22 06:03:00;;;;;;;1.55;1.45;;;19.70;62.30;;;;;;5031246;28;20411;-71
2022/03/22 06:05:28;;;;;;;1.63;1.45;;;19.70;62.30;;;;;;5031151;28;20068;-71
2022/03/22 06:07:54;;;;;;;1.90;1.50;;;19.70;62.30;;;;;;5032099;28;20029;-71
2022/03/22 06:10:20;;;;;;;1.42;1.30;;;19.70;62.40;;;;;;5030820;28;20052;-71
2022/03/22 06:12:53;;;;;;;2.58;1.67;;;19.70;62.40;;;;;;5032064;28;20048;-71
2022/03/22 06:15:23;;;;;;;1.40;1.30;;;19.70;62.40;;;;;;5032304;28;20036;-71
2022/03/22 06:17:56;;;;;;;1.30;1.20;;;19.70;62.40;;;;;;5030720;28;20029;-71
2022/03/22 06:20:23;;;;;;;2.03;1.38;;;19.70;62.40;;;;;;5018996;28;20026;-71
2022/03/22 06:22:49;;;;;;;1.40;1.30;;;19.70;62.40;;;;;;5011067;28;20042;-71
2022/03/22 06:25:15;;;;;;;2.75;1.60;;;19.70;62.50;;;;;;5011033;28;20022;-71
2022/03/22 06:27:41;;;;;;;1.50;1.38;;;19.70;62.50;;;;;;5012257;28;20034;-71
2022/03/22 06:30:08;;;;;;;3.25;2.20;;;19.60;62.40;;;;;;5011193;28;20105;-71
2022/03/22 06:32:47;;;;;;;1.67;1.50;;;19.70;62.50;;;;;;5011226;28;20460;-71
2022/03/22 06:35:16;;;;;;;2.15;1.45;;;19.70;62.50;;;;;;5011225;28;20019;-71
2022/03/22 06:37:43;;;;;;;2.03;1.58;;;19.60;62.50;;;;;;5010803;28;20033;-71
2022/03/22 06:40:09;;;;;;;2.40;1.60;;;19.60;62.50;;;;;;5010918;28;20093;-71
2022/03/22 06:42:35;;;;;;;2.08;1.40;;;19.60;62.50;;;;;;5015207;28;20049;-71
2022/03/22 06:45:03;;;;;;;1.60;1.50;;;19.60;62.50;;;;;;5014796;28;20530;-71
2022/03/22 06:47:29;;;;;;;2.38;1.48;;;19.60;62.50;;;;;;5030726;28;20103;-71
2022/03/22 06:49:54;;;;;;;1.50;1.40;;;19.60;62.50;;;;;;5064719;28;20479;-71
2022/03/22 06:52:20;;;;;;;1.60;1.50;;;19.60;62.50;;;;;;5033610;28;20082;-71
2022/03/22 06:54:46;;;;;;;1.88;1.50;;;19.60;62.50;;;;;;5065467;28;20075;-71
2022/03/22 06:57:11;;;;;;;1.85;1.60;;;19.60;62.50;;;;;;5032499;28;20048;-71
2022/03/22 06:59:37;;;;;;;1.52;1.42;;;19.60;62.50;;;;;;5033576;28;20396;-71
2022/03/22 07:02:05;;;;;;;1.73;1.45;;;19.60;62.50;;;;;;5033608;28;20155;-71
2022/03/22 07:04:31;;;;;;;1.77;1.67;;;19.60;62.50;;;;;;5031577;28;20014;-71
2022/03/22 07:06:57;;;;;;;3.67;2.40;;;19.60;62.70;;;;;;5035335;28;20040;-72
2022/03/22 07:09:22;;;;;;;4.35;3.88;;;19.60;61.90;;;;;;5067364;28;20392;-72
2022/03/22 07:11:51;;;;;;;7.40;4.55;;;19.50;61.20;;;;;;5065595;28;20033;-71
2022/03/22 07:14:24;;;;;;;4.85;4.43;;;19.40;60.70;;;;;;5029685;28;20480;-71
2022/03/22 07:16:50;;;;;;;6.35;4.95;;;19.30;60.50;;;;;;5033944;28;20030;-72
2022/03/22 07:19:20;;;;;;;6.68;4.70;;;19.20;60.20;;;;;;5034383;28;20024;-72
2022/03/22 07:21:45;;;;;;;6.82;5.05;;;19.10;59.80;;;;;;5034328;28;20044;-72
2022/03/22 07:24:12;;;;;;;8.52;5.40;;;19.00;59.90;;;;;;5034101;28;20472;-70
2022/03/22 07:26:38;;;;;;;8.73;5.70;;;19.00;59.70;;;;;;5033741;28;20022;-70
2022/03/22 07:29:03;;;;;;;7.25;5.28;;;18.90;59.50;;;;;;5035350;28;20033;-70
2022/03/22 07:31:29;;;;;;;7.35;5.47;;;18.80;59.20;;;;;;5033754;28;20029;-72
2022/03/22 07:33:56;;;;;;;7.75;5.88;;;18.80;59.10;;;;;;5033776;28;20053;-73
2022/03/22 07:36:22;;;;;;;7.07;5.13;;;18.80;59.00;;;;;;5034859;28;20021;-72
2022/03/22 07:38:48;;;;;;;7.32;5.60;;;18.70;58.90;;;;;;5033230;28;20076;-72
2022/03/22 07:41:14;;;;;;;7.75;5.63;;;18.70;58.90;;;;;;5017094;28;21089;-72
2022/03/22 07:43:42;;;;;;;8.20;6.30;;;18.60;58.50;;;;;;5034807;28;20018;-72
2022/03/22 07:46:08;;;;;;;6.47;5.50;;;18.60;58.30;;;;;;5034777;28;20047;-72
2022/03/22 07:48:34;;;;;;;8.75;5.78;;;18.60;58.30;;;;;;5034385;28;20017;-72
2022/03/22 07:53:44;;;;;;;7.85;5.85;;;18.50;58.00;;;;;;5018721;28;20137;-72
2022/03/22 07:56:13;;;;;;;7.45;5.85;;;18.40;58.00;;;;;;5032724;28;20029;-72
2022/03/22 07:58:39;;;;;;;9.65;5.93;;;18.40;58.00;;;;;;5033558;28;20041;-72
2022/03/22 08:01:04;;;;;;;16.88;7.22;;;18.40;57.70;;;;;;5034139;28;20459;-72
2022/03/22 08:03:30;;;;;;;19.48;6.80;;;18.40;57.60;;;;;;5031822;28;20456;-69
2022/03/22 08:05:56;;;;;;;12.68;6.45;;;18.30;57.60;;;;;;5064480;28;20026;-68
2022/03/22 08:08:21;;;;;;;10.70;6.80;;;18.30;57.50;;;;;;5064787;28;20056;-69
2022/03/22 08:10:47;;;;;;;12.88;7.22;;;18.30;57.40;;;;;;5033289;28;20454;-68
2022/03/22 08:13:13;;;;;;;11.43;6.45;;;18.30;57.20;;;;;;5033243;28;20054;-68
2022/03/22 08:15:39;;;;;;;12.75;6.10;;;18.30;57.20;;;;;;5031481;28;20061;-68
2022/03/22 08:18:05;;;;;;;12.07;6.75;;;18.30;57.20;;;;;;5064236;28;20506;-68
2022/03/22 08:20:30;;;;;;;13.50;6.22;;;18.30;57.00;;;;;;5033558;28;20440;-70
2022/03/22 08:23:06;;;;;;;11.77;6.70;;;18.20;56.80;;;;;;5032671;28;20071;-68
2022/03/22 08:25:39;;;;;;;12.30;6.07;;;18.20;56.60;;;;;;5032572;28;20435;-68
2022/03/22 08:28:06;;;;;;;9.88;6.22;;;18.20;56.60;;;;;;5033707;28;20029;-69
2022/03/22 08:30:32;;;;;;;10.32;6.10;;;18.10;56.50;;;;;;5032840;28;20060;-69
2022/03/22 08:32:58;;;;;;;10.20;6.40;;;18.10;56.50;;;;;;5032437;28;20036;-70
2022/03/22 08:35:25;;;;;;;12.13;6.35;;;18.10;56.30;;;;;;5033575;28;20025;-68
2022/03/22 08:37:50;;;;;;;15.18;6.38;;;18.10;56.20;;;;;;5032364;28;20033;-68
2022/03/22 08:40:16;;;;;;;10.48;6.60;;;18.10;56.20;;;;;;5032256;28;20492;-70
2022/03/22 08:42:46;;;;;;;14.23;6.88;;;18.10;56.00;;;;;;5033510;28;20076;-68
2022/03/22 08:45:13;;;;;;;9.02;6.45;;;18.10;55.90;;;;;;5032534;28;20160;-69
2022/03/22 08:47:40;;;;;;;7.80;6.05;;;18.00;55.80;;;;;;5033308;28;20033;-68
2022/03/22 08:50:09;;;;;;;9.18;6.53;;;18.00;55.70;;;;;;5033048;28;20032;-69
2022/03/22 08:52:36;;;;;;;9.57;6.55;;;18.00;55.70;;;;;;5033562;28;20112;-69
2022/03/22 08:55:03;;;;;;;8.98;5.82;;;18.00;55.60;;;;;;5033146;28;20037;-68
2022/03/22 08:57:29;;;;;;;7.93;5.80;;;17.90;55.40;;;;;;5032154;28;20034;-69
2022/03/22 08:59:54;;;;;;;9.25;5.78;;;18.00;55.30;;;;;;5032884;28;20029;-69
2022/03/22 09:02:20;;;;;;;10.55;6.32;;;17.90;55.20;;;;;;5032125;28;20026;-68
2022/03/22 09:07:30;;;;;;;9.27;5.70;;;17.90;55.10;;;;;;5032867;28;20036;-68
2022/03/22 09:09:55;;;;;;;8.02;6.00;;;17.90;55.10;;;;;;5033145;28;20407;-68
2022/03/22 09:12:21;;;;;;;10.07;5.97;;;17.90;55.00;;;;;;5033162;28;20487;-68
2022/03/22 09:14:47;;;;;;;8.45;5.93;;;17.80;54.70;;;;;;5032884;28;20056;-68
2022/03/22 09:17:13;;;;;;;9.95;6.35;;;17.80;54.70;;;;;;5032860;28;20030;-69
2022/03/22 09:19:39;;;;;;;10.07;5.93;;;17.80;54.70;;;;;;5032583;28;20498;-69
2022/03/22 09:22:08;;;;;;;10.25;6.30;;;17.80;54.50;;;;;;5032801;28;20049;-70
2022/03/22 09:24:35;;;;;;;9.25;6.40;;;17.80;54.50;;;;;;5031774;28;20018;-69
2022/03/22 09:27:01;;;;;;;10.65;5.80;;;17.80;54.30;;;;;;5031380;28;20116;-68
2022/03/22 09:29:27;;;;;;;9.82;6.13;;;17.80;54.30;;;;;;5031315;28;20028;-70
2022/03/22 09:31:53;;;;;;;7.18;5.57;;;17.80;54.30;;;;;;5032863;28;20029;-69
2022/03/22 09:34:18;;;;;;;10.20;5.85;;;17.80;54.30;;;;;;5032722;28;20025;-68
2022/03/22 09:36:44;;;;;;;11.18;6.15;;;17.70;54.20;;;;;;5032528;28;20033;-71
2022/03/22 09:39:10;;;;;;;8.02;5.70;;;17.80;54.30;;;;;;5032455;28;20035;-68
2022/03/22 09:41:37;;;;;;;10.05;6.00;;;17.70;54.10;;;;;;5032413;28;20040;-68
2022/03/22 09:44:03;;;;;;;8.13;5.45;;;17.70;54.00;;;;;;5031191;28;20555;-72
2022/03/22 09:46:28;;;;;;;9.02;5.72;;;17.70;53.90;;;;;;5032633;28;20101;-71
2022/03/22 09:48:54;;;;;;;7.45;5.85;;;17.70;53.90;;;;;;5030997;28;20033;-71
2022/03/22 09:54:07;;;;;;;7.05;4.97;;;17.70;54.20;;;;;;5031264;28;20452;-69
2022/03/22 09:56:32;;;;;;;7.00;5.00;;;17.80;54.50;;;;;;5031344;28;20068;-72
2022/03/22 09:59:03;;;;;;;5.88;4.75;;;17.80;54.50;;;;;;5032036;28;20049;-72
2022/03/22 10:01:29;;;;;;;7.55;4.25;;;17.90;54.50;;;;;;5032199;28;20472;-72
2022/03/22 10:04:02;;;;;;;7.82;4.40;;;17.90;54.60;;;;;;5030949;28;20028;-72
2022/03/22 10:06:28;;;;;;;6.78;4.65;;;18.00;54.60;;;;;;5032186;28;20053;-71
2022/03/22 10:08:54;;;;;;;6.13;4.60;;;18.00;54.60;;;;;;5018540;28;20101;-70
2022/03/22 10:11:20;;;;;;;5.55;4.47;;;18.00;54.60;;;;;;5011351;28;20105;-70
2022/03/22 10:13:52;;;;;;;8.55;4.22;;;18.10;54.70;;;;;;5012602;28;20029;-71
2022/03/22 10:16:18;;;;;;;5.85;4.35;;;18.10;54.70;;;;;;5013074;28;20026;-71
2022/03/22 10:18:44;;;;;;;7.47;4.50;;;18.10;54.70;;;;;;5015331;28;20033;-70
2022/03/22 10:21:09;;;;;;;6.53;4.28;;;18.10;54.80;;;;;;5035883;28;20025;-72
2022/03/22 10:23:50;;;;;;;7.90;4.43;;;18.20;54.80;;;;;;5036180;28;20424;-70
2022/03/22 10:26:16;;;;;;;6.68;3.80;;;18.30;54.70;;;;;;5034809;28;20030;-71
2022/03/22 10:28:52;;;;;;;9.45;4.35;;;18.20;54.80;;;;;;5036291;28;20079;-71
2022/03/22 10:31:18;;;;;;;4.35;3.40;;;18.30;54.80;;;;;;5034744;28;20029;-71
2022/03/22 10:33:53;;;;;;;6.28;4.00;;;18.30;54.90;;;;;;5034928;28;20079;-70
2022/03/22 10:36:21;;;;;;;5.55;4.28;;;18.40;54.90;;;;;;5034562;28;20049;-70
2022/03/22 10:38:57;;;;;;;5.35;3.83;;;18.30;54.90;;;;;;5035780;28;20029;-70
2022/03/22 10:41:35;;;;;;;6.38;3.90;;;18.40;54.90;;;;;;5035387;28;20483;-72
2022/03/22 10:44:13;;;;;;;5.35;3.78;;;18.40;54.90;;;;;;5034426;28;20057;-71
2022/03/22 10:46:38;;;;;;;5.10;4.18;;;18.40;54.90;;;;;;5035515;28;20096;-71
2022/03/22 10:49:06;;;;;;;4.85;3.30;;;18.40;55.10;;;;;;5034271;28;20129;-71
2022/03/22 10:51:42;;;;;;;5.22;3.95;;;18.40;55.10;;;;;;5034439;28;20022;-71
2022/03/22 10:54:12;;;;;;;3.88;3.33;;;18.50;55.10;;;;;;5035368;28;20033;-71
2022/03/22 10:56:54;;;;;;;4.80;3.83;;;18.40;55.10;;;;;;5034461;28;20430;-71
2022/03/22 10:59:21;;;;;;;4.40;3.60;;;18.50;55.20;;;;;;5034444;28;20022;-71
2022/03/22 11:01:47;;;;;;;4.80;3.75;;;18.50;55.20;;;;;;5035019;28;20108;-71
2022/03/22 11:04:19;;;;;;;5.72;3.65;;;18.50;55.20;;;;;;5034028;28;20535;-70
2022/03/22 11:06:48;;;;;;;4.80;3.67;;;18.60;55.30;;;;;;5035341;28;20033;-69
2022/03/22 11:09:17;;;;;;;6.43;3.50;;;18.60;55.30;;;;;;5020220;28;20484;-70
2022/03/22 11:11:43;;;;;;;6.05;4.10;;;18.60;55.30;;;;;;5014527;28;20026;-69
2022/03/22 11:14:11;;;;;;;4.60;3.45;;;18.60;55.30;;;;;;5014637;28;20550;-69
2022/03/22 11:16:36;;;;;;;3.95;3.55;;;18.60;55.30;;;;;;5029753;28;20108;-70
2022/03/22 11:19:03;;;;;;;4.80;3.53;;;18.70;55.40;;;;;;5033742;28;20114;-70
2022/03/22 11:21:29;;;;;;;3.78;3.28;;;18.70;55.40;;;;;;5033784;28;20454;-69
2022/03/22 11:24:07;;;;;;;4.93;3.63;;;18.70;55.40;;;;;;5033838;28;20021;-69
2022/03/22 11:26:44;;;;;;;3.97;3.55;;;18.70;55.30;;;;;;5033790;28;20546;-68
2022/03/22 11:29:17;;;;;;;4.30;3.47;;;18.70;55.50;;;;;;5033740;28;20124;-70
2022/03/22 11:31:43;;;;;;;3.88;3.30;;;18.70;55.40;;;;;;5034918;28;20079;-69
2022/03/22 11:34:09;;;;;;;4.88;3.70;;;18.70;55.50;;;;;;5021070;28;20026;-69
2022/03/22 11:36:44;;;;;;;4.28;3.58;;;18.70;55.50;;;;;;5013743;28;20060;-69
2022/03/22 11:39:15;;;;;;;7.28;3.45;;;18.80;55.50;;;;;;5015001;28;20467;-69
2022/03/22 11:44:33;;;;;;;5.38;3.47;;;18.80;55.60;;;;;;5013574;28;20153;-69
2022/03/22 11:47:07;;;;;;;4.40;4.00;;;18.80;55.60;;;;;;5014840;28;20053;-68
2022/03/22 11:49:54;;;;;;;6.28;4.50;;;18.80;55.60;;;;;;5013673;28;20117;-68
2022/03/22 11:52:21;;;;;;;6.15;4.57;;;18.80;55.60;;;;;;5031763;28;20396;-68
2022/03/22 11:55:01;;;;;;;8.43;5.43;;;18.80;55.80;;;;;;5032925;28;20471;-68
2022/03/22 11:57:27;;;;;;;7.55;5.15;;;18.90;55.90;;;;;;5033169;28;20438;-67
2022/03/22 11:59:53;;;;;;;8.43;5.63;;;18.90;56.00;;;;;;5032957;28;20018;-68
2022/03/22 12:02:27;;;;;;;7.95;6.15;;;19.00;56.10;;;;;;5032969;28;20064;-69
2022/03/22 12:04:57;;;;;;;9.80;6.18;;;19.10;56.20;;;;;;5033038;28;20025;-71
2022/03/22 12:07:32;;;;;;;8.63;6.63;;;19.00;56.20;;;;;;5032923;28;20032;-71
2022/03/22 12:10:14;;;;;;;9.27;6.80;;;19.20;56.30;;;;;;5026210;28;20083;-71
2022/03/22 12:12:49;;;;;;;8.90;6.45;;;19.20;56.40;;;;;;5012955;28;20026;-72
2022/03/22 12:15:18;;;;;;;9.38;6.97;;;19.20;56.40;;;;;;5013114;28;20037;-72
2022/03/22 12:17:44;;;;;;;9.45;6.40;;;19.30;56.40;;;;;;5013145;28;20028;-71
2022/03/22 12:20:13;;;;;;;7.90;6.25;;;19.30;56.40;;;;;;5024389;28;20017;-72
2022/03/22 12:23:00;;;;;;;8.95;6.68;;;19.30;56.40;;;;;;5032533;28;20028;-72
2022/03/22 12:25:27;;;;;;;9.73;7.30;;;19.30;56.40;;;;;;5032947;28;20022;-70
2022/03/22 12:28:03;;;;;;;8.02;6.18;;;19.40;56.50;;;;;;5032551;28;20025;-71
2022/03/22 12:30:31;;;;;;;8.13;6.20;;;19.40;56.50;;;;;;5033579;28;20032;-72
2022/03/22 12:32:59;;;;;;;9.80;6.47;;;19.40;56.50;;;;;;5032573;28;20376;-72
2022/03/22 12:35:24;;;;;;;9.50;6.15;;;19.40;56.50;;;;;;5032384;28;20017;-72
2022/03/22 12:37:52;;;;;;;8.00;6.20;;;19.50;56.60;;;;;;5032467;28;20403;-72
2022/03/22 12:40:18;;;;;;;8.23;6.47;;;19.40;56.50;;;;;;5032991;28;20022;-71
2022/03/22 12:42:44;;;;;;;6.40;5.53;;;19.50;56.60;;;;;;5032017;28;20037;-71
2022/03/22 12:45:13;;;;;;;7.00;6.20;;;19.50;56.60;;;;;;5032325;28;20083;-71
2022/03/22 12:47:39;;;;;;;7.72;6.18;;;19.50;57.60;;;;;;5033330;28;20060;-71
2022/03/22 12:50:06;;;;;;;8.57;5.88;;;19.50;56.60;;;;;;5032277;28;20044;-71
2022/03/22 12:52:32;;;;;;;7.78;6.07;;;19.50;56.60;;;;;;5032152;28;20064;-71
2022/03/22 12:54:58;;;;;;;7.68;6.20;;;19.60;56.70;;;;;;5033254;28;20064;-72
2022/03/22 12:57:24;;;;;;;7.47;5.47;;;19.60;56.60;;;;;;5031721;28;20108;-71
2022/03/22 12:59:49;;;;;;;7.28;5.78;;;19.60;56.70;;;;;;5033222;28;20567;-72
2022/03/22 13:02:15;;;;;;;6.97;5.50;;;19.60;56.70;;;;;;5033076;28;20013;-70
2022/03/22 13:04:46;;;;;;;6.22;4.82;;;19.60;56.70;;;;;;5032054;28;20029;-72
2022/03/22 13:07:13;;;;;;;6.65;5.03;;;19.60;56.70;;;;;;5033104;28;20530;-71
2022/03/22 13:12:23;;;;;;;6.00;5.38;;;19.60;56.70;;;;;;5033326;28;20063;-72
2022/03/22 13:15:01;;;;;;;5.70;4.60;;;19.70;56.80;;;;;;5032241;28;20029;-72
2022/03/22 13:17:28;;;;;;;4.88;4.32;;;19.70;56.90;;;;;;5031992;28;20041;-71